sensor_id;sensor_type;location;lat;lon;timestamp;P1;durP1;ratioP1;P2;durP2;ratioP2
23101;SDS011;11720;51.214;22.574;2022-07-10T00:00:12;2.58;;;1.55;;
23101;SDS011;11720;51.214;22.574;2022-07-10T00:02:40;2.15;;;1.50;;
23101;SDS011;11720;51.214;22.574;2022-07-10T00:05:07;2.17;;;1.50;;
23101;SDS011;11720;51.214;22.574;2022-07-10T00:07:34;2.10;;;1.55;;
23101;SDS011;11720;51.214;22.574;2022-07-10T00:09:59;1.98;;;1.77;;
23101;SDS011;11720;51.214;22.574;2022-07-10T00:12:25;2.15;;;1.60;;
23101;SDS011;11720;51.214;22.574;2022-07-10T00:14:51;2.97;;;1.65;;
23101;SDS011;11720;51.214;22.574;2022-07-10T00:17:17;3.67;;;2.33;;
23101;SDS011;11720;51.214;22.574;2022-07-10T00:19:43;2.15;;;1.70;;
23101;SDS011;11720;51.214;22.574;2022-07-10T00:22:08;1.70;;;1.60;;
23101;SDS011;11720;51.214;22.574;2022-07-10T00:24:34;2.97;;;1.85;;
23101;SDS011;11720;51.214;22.574;2022-07-10T00:26:59;2.30;;;1.50;;
23101;SDS011;11720;51.214;22.574;2022-07-10T00:29:25;4.22;;;1.77;;
23101;SDS011;11720;51.214;22.574;2022-07-10T00:31:51;2.88;;;1.65;;
23101;SDS011;11720;51.214;22.574;2022-07-10T00:34:16;3.25;;;2.10;;
23101;SDS011;11720;51.214;22.574;2022-07-10T00:36:42;2.00;;;1.85;;
23101;SDS011;11720;51.214;22.574;2022-07-10T00:39:08;2.83;;;2.08;;
23101;SDS011;11720;51.214;22.574;2022-07-10T00:41:34;2.35;;;1.90;;
23101;SDS011;11720;51.214;22.574;2022-07-10T00:44:03;2.28;;;1.73;;
23101;SDS011;11720;51.214;22.574;2022-07-10T00:46:29;3.55;;;2.10;;
23101;SDS011;11720;51.214;22.574;2022-07-10T00:48:56;1.90;;;1.77;;
23101;SDS011;11720;51.214;22.574;2022-07-10T00:51:26;1.77;;;1.58;;
23101;SDS011;11720;51.214;22.574;2022-07-10T00:53:53;2.88;;;1.83;;
23101;SDS011;11720;51.214;22.574;2022-07-10T00:56:20;2.70;;;1.85;;
23101;SDS011;11720;51.214;22.574;2022-07-10T00:58:48;3.30;;;2.35;;
23101;SDS011;11720;51.214;22.574;2022-07-10T01:01:14;2.63;;;2.00;;
23101;SDS011;11720;51.214;22.574;2022-07-10T01:03:41;4.57;;;2.47;;
23101;SDS011;11720;51.214;22.574;2022-07-10T01:06:07;3.00;;;2.22;;
23101;SDS011;11720;51.214;22.574;2022-07-10T01:08:33;4.80;;;2.20;;
23101;SDS011;11720;51.214;22.574;2022-07-10T01:10:59;2.45;;;1.77;;
23101;SDS011;11720;51.214;22.574;2022-07-10T01:13:25;3.45;;;1.92;;
23101;SDS011;11720;51.214;22.574;2022-07-10T01:15:51;4.18;;;2.17;;
23101;SDS011;11720;51.214;22.574;2022-07-10T01:18:18;7.75;;;2.53;;
23101;SDS011;11720;51.214;22.574;2022-07-10T01:20:44;4.22;;;2.58;;
23101;SDS011;11720;51.214;22.574;2022-07-10T01:23:09;2.75;;;2.03;;
23101;SDS011;11720;51.214;22.574;2022-07-10T01:25:35;1.90;;;1.80;;
23101;SDS011;11720;51.214;22.574;2022-07-10T01:28:01;7.90;;;2.60;;
23101;SDS011;11720;51.214;22.574;2022-07-10T01:30:27;3.20;;;1.92;;
23101;SDS011;11720;51.214;22.574;2022-07-10T01:32:52;4.05;;;2.10;;
23101;SDS011;11720;51.214;22.574;2022-07-10T01:35:18;2.58;;;2.13;;
23101;SDS011;11720;51.214;22.574;2022-07-10T01:37:44;4.18;;;3.30;;
23101;SDS011;11720;51.214;22.574;2022-07-10T01:40:11;2.63;;;1.90;;
23101;SDS011;11720;51.214;22.574;2022-07-10T01:42:37;1.80;;;1.58;;
23101;SDS011;11720;51.214;22.574;2022-07-10T01:45:04;7.78;;;4.40;;
23101;SDS011;11720;51.214;22.574;2022-07-10T01:47:34;4.22;;;1.90;;
23101;SDS011;11720;51.214;22.574;2022-07-10T01:50:00;2.63;;;1.98;;
23101;SDS011;11720;51.214;22.574;2022-07-10T01:52:26;3.53;;;2.00;;
23101;SDS011;11720;51.214;22.574;2022-07-10T01:54:52;2.65;;;1.77;;
23101;SDS011;11720;51.214;22.574;2022-07-10T01:57:17;3.75;;;2.03;;
23101;SDS011;11720;51.214;22.574;2022-07-10T01:59:43;3.63;;;1.75;;
23101;SDS011;11720;51.214;22.574;2022-07-10T02:02:09;3.17;;;2.03;;
23101;SDS011;11720;51.214;22.574;2022-07-10T02:04:35;3.00;;;2.20;;
23101;SDS011;11720;51.214;22.574;2022-07-10T02:07:17;3.50;;;2.20;;
23101;SDS011;11720;51.214;22.574;2022-07-10T02:09:44;3.28;;;2.17;;
23101;SDS011;11720;51.214;22.574;2022-07-10T02:12:11;6.10;;;2.58;;
23101;SDS011;11720;51.214;22.574;2022-07-10T02:14:38;3.63;;;2.13;;
23101;SDS011;11720;51.214;22.574;2022-07-10T02:17:04;8.82;;;2.33;;
23101;SDS011;11720;51.214;22.574;2022-07-10T02:19:31;2.20;;;1.67;;
23101;SDS011;11720;51.214;22.574;2022-07-10T02:21:57;3.97;;;2.20;;
23101;SDS011;11720;51.214;22.574;2022-07-10T02:24:23;4.28;;;2.45;;
23101;SDS011;11720;51.214;22.574;2022-07-10T02:26:49;4.57;;;2.10;;
23101;SDS011;11720;51.214;22.574;2022-07-10T02:29:14;3.25;;;2.40;;
23101;SDS011;11720;51.214;22.574;2022-07-10T02:31:40;2.03;;;1.70;;
23101;SDS011;11720;51.214;22.574;2022-07-10T02:34:07;4.13;;;2.65;;
23101;SDS011;11720;51.214;22.574;2022-07-10T02:36:33;4.63;;;2.22;;
23101;SDS011;11720;51.214;22.574;2022-07-10T02:38:59;2.92;;;1.90;;
23101;SDS011;11720;51.214;22.574;2022-07-10T02:41:25;5.50;;;2.50;;
23101;SDS011;11720;51.214;22.574;2022-07-10T02:43:51;2.47;;;2.05;;
23101;SDS011;11720;51.214;22.574;2022-07-10T02:46:16;2.53;;;1.85;;
23101;SDS011;11720;51.214;22.574;2022-07-10T02:48:42;3.03;;;2.47;;
23101;SDS011;11720;51.214;22.574;2022-07-10T02:51:08;4.47;;;2.40;;
23101;SDS011;11720;51.214;22.574;2022-07-10T02:53:33;4.10;;;2.38;;
23101;SDS011;11720;51.214;22.574;2022-07-10T02:55:59;4.25;;;2.05;;
23101;SDS011;11720;51.214;22.574;2022-07-10T02:58:24;5.72;;;3.45;;
23101;SDS011;11720;51.214;22.574;2022-07-10T03:00:50;3.50;;;2.10;;
23101;SDS011;11720;51.214;22.574;2022-07-10T03:03:16;3.65;;;1.83;;
23101;SDS011;11720;51.214;22.574;2022-07-10T03:05:42;2.45;;;2.00;;
23101;SDS011;11720;51.214;22.574;2022-07-10T03:08:09;3.78;;;2.33;;
23101;SDS011;11720;51.214;22.574;2022-07-10T03:10:35;3.00;;;2.20;;
23101;SDS011;11720;51.214;22.574;2022-07-10T03:13:01;3.75;;;2.10;;
23101;SDS011;11720;51.214;22.574;2022-07-10T03:15:27;5.35;;;2.72;;
23101;SDS011;11720;51.214;22.574;2022-07-10T03:17:53;4.20;;;2.20;;
23101;SDS011;11720;51.214;22.574;2022-07-10T03:20:18;4.55;;;3.20;;
23101;SDS011;11720;51.214;22.574;2022-07-10T03:22:44;3.00;;;2.40;;
23101;SDS011;11720;51.214;22.574;2022-07-10T03:25:10;3.92;;;2.17;;
23101;SDS011;11720;51.214;22.574;2022-07-10T03:27:35;2.00;;;1.80;;
23101;SDS011;11720;51.214;22.574;2022-07-10T03:30:01;2.65;;;2.13;;
23101;SDS011;11720;51.214;22.574;2022-07-10T03:32:27;3.80;;;2.28;;
23101;SDS011;11720;51.214;22.574;2022-07-10T03:34:52;4.35;;;2.20;;
23101;SDS011;11720;51.214;22.574;2022-07-10T03:37:18;4.13;;;2.30;;
23101;SDS011;11720;51.214;22.574;2022-07-10T03:39:44;5.25;;;2.60;;
23101;SDS011;11720;51.214;22.574;2022-07-10T03:42:09;3.65;;;2.20;;
23101;SDS011;11720;51.214;22.574;2022-07-10T03:44:35;2.97;;;2.20;;
23101;SDS011;11720;51.214;22.574;2022-07-10T03:47:00;3.67;;;2.40;;
23101;SDS011;11720;51.214;22.574;2022-07-10T03:49:27;3.33;;;2.35;;
23101;SDS011;11720;51.214;22.574;2022-07-10T03:51:52;3.60;;;2.20;;
23101;SDS011;11720;51.214;22.574;2022-07-10T03:54:18;3.50;;;1.70;;
23101;SDS011;11720;51.214;22.574;2022-07-10T03:56:44;2.78;;;1.98;;
23101;SDS011;11720;51.214;22.574;2022-07-10T03:59:28;2.58;;;1.90;;
23101;SDS011;11720;51.214;22.574;2022-07-10T04:01:53;4.90;;;2.47;;
23101;SDS011;11720;51.214;22.574;2022-07-10T04:04:19;2.70;;;1.98;;
23101;SDS011;11720;51.214;22.574;2022-07-10T04:06:45;4.13;;;2.38;;
23101;SDS011;11720;51.214;22.574;2022-07-10T04:09:10;3.15;;;2.08;;
23101;SDS011;11720;51.214;22.574;2022-07-10T04:11:36;3.95;;;1.83;;
23101;SDS011;11720;51.214;22.574;2022-07-10T04:14:01;3.85;;;1.83;;
23101;SDS011;11720;51.214;22.574;2022-07-10T04:16:27;2.25;;;1.77;;
23101;SDS011;11720;51.214;22.574;2022-07-10T04:18:53;5.13;;;2.08;;
23101;SDS011;11720;51.214;22.574;2022-07-10T04:21:19;2.70;;;2.08;;
23101;SDS011;11720;51.214;22.574;2022-07-10T04:23:44;2.65;;;2.10;;
23101;SDS011;11720;51.214;22.574;2022-07-10T04:26:10;1.85;;;1.63;;
23101;SDS011;11720;51.214;22.574;2022-07-10T04:28:35;2.42;;;1.85;;
23101;SDS011;11720;51.214;22.574;2022-07-10T04:31:01;1.33;;;1.23;;
23101;SDS011;11720;51.214;22.574;2022-07-10T04:33:26;3.78;;;2.30;;
23101;SDS011;11720;51.214;22.574;2022-07-10T04:35:52;2.08;;;1.88;;
23101;SDS011;11720;51.214;22.574;2022-07-10T04:38:18;2.63;;;1.83;;
23101;SDS011;11720;51.214;22.574;2022-07-10T04:40:43;2.40;;;1.67;;
23101;SDS011;11720;51.214;22.574;2022-07-10T04:43:09;3.20;;;2.05;;
23101;SDS011;11720;51.214;22.574;2022-07-10T04:45:37;2.92;;;1.92;;
23101;SDS011;11720;51.214;22.574;2022-07-10T04:48:04;3.40;;;1.90;;
23101;SDS011;11720;51.214;22.574;2022-07-10T04:50:30;1.90;;;1.70;;
23101;SDS011;11720;51.214;22.574;2022-07-10T04:52:56;2.45;;;1.67;;
23101;SDS011;11720;51.214;22.574;2022-07-10T04:55:21;1.90;;;1.75;;
23101;SDS011;11720;51.214;22.574;2022-07-10T04:57:47;2.35;;;1.77;;
23101;SDS011;11720;51.214;22.574;2022-07-10T05:00:13;3.58;;;1.65;;
23101;SDS011;11720;51.214;22.574;2022-07-10T05:02:39;1.90;;;1.40;;
23101;SDS011;11720;51.214;22.574;2022-07-10T05:05:05;3.08;;;1.63;;
23101;SDS011;11720;51.214;22.574;2022-07-10T05:07:31;4.25;;;1.65;;
23101;SDS011;11720;51.214;22.574;2022-07-10T05:09:56;3.53;;;1.73;;
23101;SDS011;11720;51.214;22.574;2022-07-10T05:12:22;2.60;;;1.88;;
23101;SDS011;11720;51.214;22.574;2022-07-10T05:14:47;3.38;;;1.65;;
23101;SDS011;11720;51.214;22.574;2022-07-10T05:17:13;3.05;;;1.85;;
23101;SDS011;11720;51.214;22.574;2022-07-10T05:19:39;3.63;;;1.92;;
23101;SDS011;11720;51.214;22.574;2022-07-10T05:22:04;2.53;;;1.67;;
23101;SDS011;11720;51.214;22.574;2022-07-10T05:24:30;1.92;;;1.48;;
23101;SDS011;11720;51.214;22.574;2022-07-10T05:26:56;2.58;;;1.67;;
23101;SDS011;11720;51.214;22.574;2022-07-10T05:29:21;1.50;;;1.38;;
23101;SDS011;11720;51.214;22.574;2022-07-10T05:31:47;2.05;;;1.30;;
23101;SDS011;11720;51.214;22.574;2022-07-10T05:34:12;1.95;;;1.40;;
23101;SDS011;11720;51.214;22.574;2022-07-10T05:36:38;4.35;;;1.42;;
23101;SDS011;11720;51.214;22.574;2022-07-10T05:39:04;1.83;;;1.35;;
23101;SDS011;11720;51.214;22.574;2022-07-10T05:41:29;2.03;;;1.45;;
23101;SDS011;11720;51.214;22.574;2022-07-10T05:43:57;1.50;;;1.30;;
23101;SDS011;11720;51.214;22.574;2022-07-10T05:46:23;2.13;;;1.65;;
23101;SDS011;11720;51.214;22.574;2022-07-10T05:48:49;2.67;;;1.48;;
23101;SDS011;11720;51.214;22.574;2022-07-10T05:51:15;4.72;;;1.80;;
23101;SDS011;11720;51.214;22.574;2022-07-10T05:53:40;1.98;;;1.42;;
23101;SDS011;11720;51.214;22.574;2022-07-10T05:56:06;1.75;;;1.42;;
23101;SDS011;11720;51.214;22.574;2022-07-10T05:58:32;2.25;;;1.50;;
23101;SDS011;11720;51.214;22.574;2022-07-10T06:00:57;1.98;;;1.35;;
23101;SDS011;11720;51.214;22.574;2022-07-10T06:03:23;1.70;;;1.27;;
23101;SDS011;11720;51.214;22.574;2022-07-10T06:05:49;2.08;;;1.50;;
23101;SDS011;11720;51.214;22.574;2022-07-10T06:08:14;2.55;;;0.98;;
23101;SDS011;11720;51.214;22.574;2022-07-10T06:10:40;2.72;;;1.45;;
23101;SDS011;11720;51.214;22.574;2022-07-10T06:13:09;1.75;;;1.65;;
23101;SDS011;11720;51.214;22.574;2022-07-10T06:15:38;1.90;;;1.67;;
23101;SDS011;11720;51.214;22.574;2022-07-10T06:18:04;2.50;;;1.50;;
23101;SDS011;11720;51.214;22.574;2022-07-10T06:20:30;1.92;;;1.40;;
23101;SDS011;11720;51.214;22.574;2022-07-10T06:22:56;1.70;;;1.40;;
23101;SDS011;11720;51.214;22.574;2022-07-10T06:25:22;2.38;;;1.92;;
23101;SDS011;11720;51.214;22.574;2022-07-10T06:27:48;2.15;;;1.10;;
23101;SDS011;11720;51.214;22.574;2022-07-10T06:30:14;2.05;;;1.30;;
23101;SDS011;11720;51.214;22.574;2022-07-10T06:32:40;1.63;;;1.20;;
23101;SDS011;11720;51.214;22.574;2022-07-10T06:35:06;2.25;;;1.20;;
23101;SDS011;11720;51.214;22.574;2022-07-10T06:37:33;1.92;;;1.50;;
23101;SDS011;11720;51.214;22.574;2022-07-10T06:39:59;2.90;;;1.20;;
23101;SDS011;11720;51.214;22.574;2022-07-10T06:42:24;3.20;;;1.55;;
23101;SDS011;11720;51.214;22.574;2022-07-10T06:44:50;2.50;;;1.70;;
23101;SDS011;11720;51.214;22.574;2022-07-10T06:47:17;1.67;;;1.10;;
23101;SDS011;11720;51.214;22.574;2022-07-10T06:50:03;1.38;;;1.00;;
23101;SDS011;11720;51.214;22.574;2022-07-10T06:52:32;2.38;;;1.10;;
23101;SDS011;11720;51.214;22.574;2022-07-10T06:54:59;2.17;;;1.70;;
23101;SDS011;11720;51.214;22.574;2022-07-10T06:57:25;1.88;;;1.42;;
23101;SDS011;11720;51.214;22.574;2022-07-10T06:59:51;2.42;;;1.83;;
23101;SDS011;11720;51.214;22.574;2022-07-10T07:02:17;2.10;;;1.60;;
23101;SDS011;11720;51.214;22.574;2022-07-10T07:04:43;2.75;;;1.52;;
23101;SDS011;11720;51.214;22.574;2022-07-10T07:07:12;4.00;;;1.60;;
23101;SDS011;11720;51.214;22.574;2022-07-10T07:09:38;1.45;;;1.27;;
23101;SDS011;11720;51.214;22.574;2022-07-10T07:12:05;2.20;;;1.20;;
23101;SDS011;11720;51.214;22.574;2022-07-10T07:14:31;2.60;;;1.42;;
23101;SDS011;11720;51.214;22.574;2022-07-10T07:16:57;1.25;;;0.95;;
23101;SDS011;11720;51.214;22.574;2022-07-10T07:19:25;1.83;;;1.17;;
23101;SDS011;11720;51.214;22.574;2022-07-10T07:22:00;2.15;;;1.55;;
23101;SDS011;11720;51.214;22.574;2022-07-10T07:24:44;1.80;;;1.60;;
23101;SDS011;11720;51.214;22.574;2022-07-10T07:27:10;2.90;;;1.73;;
23101;SDS011;11720;51.214;22.574;2022-07-10T07:29:36;2.25;;;1.00;;
23101;SDS011;11720;51.214;22.574;2022-07-10T07:32:02;4.63;;;2.00;;
23101;SDS011;11720;51.214;22.574;2022-07-10T07:34:29;3.97;;;1.23;;
23101;SDS011;11720;51.214;22.574;2022-07-10T07:36:55;3.50;;;1.52;;
23101;SDS011;11720;51.214;22.574;2022-07-10T07:39:22;2.05;;;1.48;;
23101;SDS011;11720;51.214;22.574;2022-07-10T07:41:47;2.08;;;1.55;;
23101;SDS011;11720;51.214;22.574;2022-07-10T07:44:13;1.58;;;1.30;;
23101;SDS011;11720;51.214;22.574;2022-07-10T07:46:41;1.40;;;1.15;;
23101;SDS011;11720;51.214;22.574;2022-07-10T07:49:06;1.83;;;1.52;;
23101;SDS011;11720;51.214;22.574;2022-07-10T07:51:32;3.05;;;1.60;;
23101;SDS011;11720;51.214;22.574;2022-07-10T07:53:58;2.15;;;1.60;;
23101;SDS011;11720;51.214;22.574;2022-07-10T07:56:23;3.03;;;1.30;;
23101;SDS011;11720;51.214;22.574;2022-07-10T07:58:50;4.93;;;1.75;;
23101;SDS011;11720;51.214;22.574;2022-07-10T08:01:17;1.30;;;1.20;;
23101;SDS011;11720;51.214;22.574;2022-07-10T08:03:44;1.48;;;0.93;;
23101;SDS011;11720;51.214;22.574;2022-07-10T08:06:10;1.00;;;0.90;;
23101;SDS011;11720;51.214;22.574;2022-07-10T08:08:36;2.17;;;1.33;;
23101;SDS011;11720;51.214;22.574;2022-07-10T08:11:03;3.42;;;1.38;;
23101;SDS011;11720;51.214;22.574;2022-07-10T08:13:28;1.30;;;1.13;;
23101;SDS011;11720;51.214;22.574;2022-07-10T08:15:54;1.73;;;1.45;;
23101;SDS011;11720;51.214;22.574;2022-07-10T08:18:20;1.30;;;1.00;;
23101;SDS011;11720;51.214;22.574;2022-07-10T08:20:46;3.13;;;1.08;;
23101;SDS011;11720;51.214;22.574;2022-07-10T08:23:11;0.82;;;0.80;;
23101;SDS011;11720;51.214;22.574;2022-07-10T08:25:37;1.30;;;0.70;;
23101;SDS011;11720;51.214;22.574;2022-07-10T08:28:03;1.55;;;0.70;;
23101;SDS011;11720;51.214;22.574;2022-07-10T08:30:34;1.38;;;0.90;;
23101;SDS011;11720;51.214;22.574;2022-07-10T08:33:00;1.20;;;0.80;;
23101;SDS011;11720;51.214;22.574;2022-07-10T08:35:26;0.70;;;0.70;;
23101;SDS011;11720;51.214;22.574;2022-07-10T08:37:51;1.25;;;0.82;;
23101;SDS011;11720;51.214;22.574;2022-07-10T08:40:17;0.80;;;0.60;;
23101;SDS011;11720;51.214;22.574;2022-07-10T08:42:47;1.45;;;0.77;;
23101;SDS011;11720;51.214;22.574;2022-07-10T08:45:13;0.75;;;0.70;;
23101;SDS011;11720;51.214;22.574;2022-07-10T08:47:39;1.63;;;0.50;;
23101;SDS011;11720;51.214;22.574;2022-07-10T08:52:47;0.90;;;0.63;;
23101;SDS011;11720;51.214;22.574;2022-07-10T08:55:31;0.90;;;0.70;;
23101;SDS011;11720;51.214;22.574;2022-07-10T08:57:57;0.60;;;0.60;;
23101;SDS011;11720;51.214;22.574;2022-07-10T09:00:24;0.68;;;0.68;;
23101;SDS011;11720;51.214;22.574;2022-07-10T09:02:50;1.38;;;1.13;;
23101;SDS011;11720;51.214;22.574;2022-07-10T09:05:17;1.23;;;0.57;;
23101;SDS011;11720;51.214;22.574;2022-07-10T09:07:44;0.85;;;0.60;;
23101;SDS011;11720;51.214;22.574;2022-07-10T09:10:10;1.85;;;0.75;;
23101;SDS011;11720;51.214;22.574;2022-07-10T09:12:56;1.45;;;0.82;;
23101;SDS011;11720;51.214;22.574;2022-07-10T09:15:24;2.78;;;1.30;;
23101;SDS011;11720;51.214;22.574;2022-07-10T09:17:52;1.83;;;1.50;;
23101;SDS011;11720;51.214;22.574;2022-07-10T09:20:29;3.30;;;1.40;;
23101;SDS011;11720;51.214;22.574;2022-07-10T09:23:00;3.67;;;1.10;;
23101;SDS011;11720;51.214;22.574;2022-07-10T09:25:44;1.42;;;0.82;;
23101;SDS011;11720;51.214;22.574;2022-07-10T09:28:15;1.85;;;1.10;;
23101;SDS011;11720;51.214;22.574;2022-07-10T09:30:43;2.95;;;1.10;;
23101;SDS011;11720;51.214;22.574;2022-07-10T09:33:22;1.00;;;0.95;;
23101;SDS011;11720;51.214;22.574;2022-07-10T09:41:16;0.80;;;0.80;;
23101;SDS011;11720;51.214;22.574;2022-07-10T09:46:18;0.80;;;0.80;;
23101;SDS011;11720;51.214;22.574;2022-07-10T09:48:46;5.70;;;0.80;;
23101;SDS011;11720;51.214;22.574;2022-07-10T09:51:12;1.98;;;1.23;;
23101;SDS011;11720;51.214;22.574;2022-07-10T09:53:42;2.33;;;0.88;;
23101;SDS011;11720;51.214;22.574;2022-07-10T09:56:11;2.10;;;1.48;;
23101;SDS011;11720;51.214;22.574;2022-07-10T09:58:37;0.90;;;0.60;;
23101;SDS011;11720;51.214;22.574;2022-07-10T10:01:05;2.03;;;0.90;;
23101;SDS011;11720;51.214;22.574;2022-07-10T10:03:33;0.63;;;0.63;;
23101;SDS011;11720;51.214;22.574;2022-07-10T10:06:04;1.27;;;0.70;;
23101;SDS011;11720;51.214;22.574;2022-07-10T10:11:27;0.55;;;0.55;;
23101;SDS011;11720;51.214;22.574;2022-07-10T10:13:55;0.82;;;0.82;;
23101;SDS011;11720;51.214;22.574;2022-07-10T10:16:22;0.70;;;0.65;;
23101;SDS011;11720;51.214;22.574;2022-07-10T10:18:52;0.57;;;0.57;;
23101;SDS011;11720;51.214;22.574;2022-07-10T10:21:37;0.47;;;0.47;;
23101;SDS011;11720;51.214;22.574;2022-07-10T10:24:04;0.60;;;0.60;;
23101;SDS011;11720;51.214;22.574;2022-07-10T10:26:31;0.60;;;0.60;;
23101;SDS011;11720;51.214;22.574;2022-07-10T10:28:59;1.58;;;0.63;;
23101;SDS011;11720;51.214;22.574;2022-07-10T10:31:27;1.42;;;0.90;;
23101;SDS011;11720;51.214;22.574;2022-07-10T10:33:55;0.70;;;0.63;;
23101;SDS011;11720;51.214;22.574;2022-07-10T10:41:42;1.15;;;0.77;;
23101;SDS011;11720;51.214;22.574;2022-07-10T10:49:15;0.80;;;0.43;;
23101;SDS011;11720;51.214;22.574;2022-07-10T10:54:59;0.63;;;0.30;;
23101;SDS011;11720;51.214;22.574;2022-07-10T10:57:21;1.35;;;0.40;;
23101;SDS011;11720;51.214;22.574;2022-07-10T10:59:48;0.35;;;0.30;;
23101;SDS011;11720;51.214;22.574;2022-07-10T11:02:30;0.43;;;0.38;;
23101;SDS011;11720;51.214;22.574;2022-07-10T11:05:45;0.35;;;0.35;;
23101;SDS011;11720;51.214;22.574;2022-07-10T11:10:26;0.98;;;0.30;;
23101;SDS011;11720;51.214;22.574;2022-07-10T11:13:05;0.40;;;0.40;;
23101;SDS011;11720;51.214;22.574;2022-07-10T11:15:32;0.40;;;0.40;;
23101;SDS011;11720;51.214;22.574;2022-07-10T11:18:05;1.17;;;0.35;;
23101;SDS011;11720;51.214;22.574;2022-07-10T11:20:33;1.10;;;0.90;;
23101;SDS011;11720;51.214;22.574;2022-07-10T11:26:13;0.30;;;0.30;;
23101;SDS011;11720;51.214;22.574;2022-07-10T11:29:01;0.80;;;0.43;;
23101;SDS011;11720;51.214;22.574;2022-07-10T11:31:30;0.30;;;0.20;;
23101;SDS011;11720;51.214;22.574;2022-07-10T11:33:59;0.30;;;0.30;;
23101;SDS011;11720;51.214;22.574;2022-07-10T11:36:25;0.38;;;0.38;;
23101;SDS011;11720;51.214;22.574;2022-07-10T11:39:04;0.30;;;0.30;;
23101;SDS011;11720;51.214;22.574;2022-07-10T11:41:31;0.60;;;0.30;;
23101;SDS011;11720;51.214;22.574;2022-07-10T11:44:01;0.30;;;0.30;;
23101;SDS011;11720;51.214;22.574;2022-07-10T11:46:28;0.43;;;0.40;;
23101;SDS011;11720;51.214;22.574;2022-07-10T11:48:58;0.30;;;0.30;;
23101;SDS011;11720;51.214;22.574;2022-07-10T11:51:30;0.55;;;0.38;;
23101;SDS011;11720;51.214;22.574;2022-07-10T11:54:08;0.95;;;0.32;;
23101;SDS011;11720;51.214;22.574;2022-07-10T11:56:37;0.43;;;0.43;;
23101;SDS011;11720;51.214;22.574;2022-07-10T11:59:09;0.40;;;0.40;;
23101;SDS011;11720;51.214;22.574;2022-07-10T12:01:40;1.33;;;0.90;;
23101;SDS011;11720;51.214;22.574;2022-07-10T12:04:08;0.75;;;0.73;;
23101;SDS011;11720;51.214;22.574;2022-07-10T12:06:35;0.70;;;0.60;;
23101;SDS011;11720;51.214;22.574;2022-07-10T12:09:03;1.02;;;0.60;;
23101;SDS011;11720;51.214;22.574;2022-07-10T12:11:31;1.35;;;0.50;;
23101;SDS011;11720;51.214;22.574;2022-07-10T12:16:47;0.32;;;0.32;;
23101;SDS011;11720;51.214;22.574;2022-07-10T12:19:15;0.68;;;0.68;;
23101;SDS011;11720;51.214;22.574;2022-07-10T12:21:42;1.08;;;0.55;;
23101;SDS011;11720;51.214;22.574;2022-07-10T12:24:09;1.40;;;0.68;;
23101;SDS011;11720;51.214;22.574;2022-07-10T12:26:40;0.63;;;0.63;;
23101;SDS011;11720;51.214;22.574;2022-07-10T12:29:28;0.70;;;0.70;;
23101;SDS011;11720;51.214;22.574;2022-07-10T12:31:55;1.25;;;1.10;;
23101;SDS011;11720;51.214;22.574;2022-07-10T12:34:35;1.33;;;1.23;;
23101;SDS011;11720;51.214;22.574;2022-07-10T12:37:12;1.15;;;0.85;;
23101;SDS011;11720;51.214;22.574;2022-07-10T12:39:51;0.50;;;0.50;;
23101;SDS011;11720;51.214;22.574;2022-07-10T12:42:51;0.60;;;0.60;;
23101;SDS011;11720;51.214;22.574;2022-07-10T12:45:14;1.05;;;0.47;;
23101;SDS011;11720;51.214;22.574;2022-07-10T12:47:47;0.95;;;0.70;;
23101;SDS011;11720;51.214;22.574;2022-07-10T12:50:15;0.43;;;0.43;;
23101;SDS011;11720;51.214;22.574;2022-07-10T12:52:42;1.45;;;0.55;;
23101;SDS011;11720;51.214;22.574;2022-07-10T12:55:15;0.63;;;0.63;;
23101;SDS011;11720;51.214;22.574;2022-07-10T13:00:16;0.47;;;0.47;;
23101;SDS011;11720;51.214;22.574;2022-07-10T13:05:40;1.05;;;0.50;;
23101;SDS011;11720;51.214;22.574;2022-07-10T13:08:17;0.50;;;0.50;;
23101;SDS011;11720;51.214;22.574;2022-07-10T13:10:55;0.47;;;0.43;;
23101;SDS011;11720;51.214;22.574;2022-07-10T13:13:25;1.45;;;0.60;;
23101;SDS011;11720;51.214;22.574;2022-07-10T13:15:51;0.93;;;0.68;;
23101;SDS011;11720;51.214;22.574;2022-07-10T13:18:25;4.10;;;0.60;;
23101;SDS011;11720;51.214;22.574;2022-07-10T13:20:52;0.68;;;0.68;;
23101;SDS011;11720;51.214;22.574;2022-07-10T13:23:19;0.45;;;0.45;;
23101;SDS011;11720;51.214;22.574;2022-07-10T13:25:51;0.50;;;0.50;;
23101;SDS011;11720;51.214;22.574;2022-07-10T13:28:17;0.45;;;0.43;;
23101;SDS011;11720;51.214;22.574;2022-07-10T13:30:43;2.75;;;1.10;;
23101;SDS011;11720;51.214;22.574;2022-07-10T13:33:09;0.77;;;0.63;;
23101;SDS011;11720;51.214;22.574;2022-07-10T13:35:35;0.55;;;0.55;;
23101;SDS011;11720;51.214;22.574;2022-07-10T13:38:02;0.60;;;0.60;;
23101;SDS011;11720;51.214;22.574;2022-07-10T13:40:29;0.40;;;0.40;;
23101;SDS011;11720;51.214;22.574;2022-07-10T13:42:59;0.95;;;0.70;;
23101;SDS011;11720;51.214;22.574;2022-07-10T13:45:26;0.70;;;0.50;;
23101;SDS011;11720;51.214;22.574;2022-07-10T13:47:55;1.20;;;0.52;;
23101;SDS011;11720;51.214;22.574;2022-07-10T13:50:21;0.50;;;0.50;;
23101;SDS011;11720;51.214;22.574;2022-07-10T13:52:47;0.45;;;0.45;;
23101;SDS011;11720;51.214;22.574;2022-07-10T13:55:13;3.75;;;1.50;;
23101;SDS011;11720;51.214;22.574;2022-07-10T13:57:39;0.60;;;0.50;;
23101;SDS011;11720;51.214;22.574;2022-07-10T14:00:05;0.95;;;0.93;;
23101;SDS011;11720;51.214;22.574;2022-07-10T14:02:31;0.60;;;0.60;;
23101;SDS011;11720;51.214;22.574;2022-07-10T14:04:57;0.82;;;0.70;;
23101;SDS011;11720;51.214;22.574;2022-07-10T14:07:23;0.50;;;0.50;;
23101;SDS011;11720;51.214;22.574;2022-07-10T14:09:59;1.17;;;0.65;;
23101;SDS011;11720;51.214;22.574;2022-07-10T14:12:26;1.88;;;0.57;;
23101;SDS011;11720;51.214;22.574;2022-07-10T14:14:52;0.95;;;0.40;;
23101;SDS011;11720;51.214;22.574;2022-07-10T14:17:17;1.75;;;1.05;;
23101;SDS011;11720;51.214;22.574;2022-07-10T14:19:43;0.90;;;0.90;;
23101;SDS011;11720;51.214;22.574;2022-07-10T14:22:08;0.73;;;0.73;;
23101;SDS011;11720;51.214;22.574;2022-07-10T14:24:34;1.83;;;1.20;;
23101;SDS011;11720;51.214;22.574;2022-07-10T14:27:00;2.75;;;0.80;;
23101;SDS011;11720;51.214;22.574;2022-07-10T14:29:26;1.40;;;0.80;;
23101;SDS011;11720;51.214;22.574;2022-07-10T14:31:51;0.90;;;0.60;;
23101;SDS011;11720;51.214;22.574;2022-07-10T14:34:20;1.38;;;1.10;;
23101;SDS011;11720;51.214;22.574;2022-07-10T14:36:49;0.70;;;0.70;;
23101;SDS011;11720;51.214;22.574;2022-07-10T14:39:17;1.35;;;0.60;;
23101;SDS011;11720;51.214;22.574;2022-07-10T14:41:43;1.25;;;1.13;;
23101;SDS011;11720;51.214;22.574;2022-07-10T14:44:09;1.20;;;0.70;;
23101;SDS011;11720;51.214;22.574;2022-07-10T14:46:34;1.48;;;1.10;;
23101;SDS011;11720;51.214;22.574;2022-07-10T14:49:00;1.45;;;0.60;;
23101;SDS011;11720;51.214;22.574;2022-07-10T14:51:26;1.20;;;1.00;;
23101;SDS011;11720;51.214;22.574;2022-07-10T14:53:52;1.65;;;1.23;;
23101;SDS011;11720;51.214;22.574;2022-07-10T14:56:18;2.40;;;0.80;;
23101;SDS011;11720;51.214;22.574;2022-07-10T14:58:45;1.08;;;0.85;;
23101;SDS011;11720;51.214;22.574;2022-07-10T15:01:11;1.15;;;1.05;;
23101;SDS011;11720;51.214;22.574;2022-07-10T15:03:37;3.45;;;1.17;;
23101;SDS011;11720;51.214;22.574;2022-07-10T15:06:03;1.02;;;0.80;;
23101;SDS011;11720;51.214;22.574;2022-07-10T15:08:29;1.00;;;0.90;;
23101;SDS011;11720;51.214;22.574;2022-07-10T15:10:55;2.15;;;1.10;;
23101;SDS011;11720;51.214;22.574;2022-07-10T15:13:21;0.98;;;0.85;;
23101;SDS011;11720;51.214;22.574;2022-07-10T15:15:46;3.20;;;1.17;;